Friday, November 24, 2017, 8:21 AM EST
Back to Local

KHPN, White Plains Westchester

Location: Greenwich, NY, United States Lat: 41.067
Local Time: 8:21 AM EST (13:21 GMT) Lon: -73.7
Time Zone: US/Eastern Elev: 439 ft

Show me the last for .
Show Coded

Time T Td Feel RH Dir Speed Gust Alt SLP Vis Weather Sky Remarks
2017-11-24 07:56 33 24 29 69 280° 5 - 30.03 30.06 10 CLR None
2017-11-24 06:56 29 21 25 71 290° 3 - 30.03 30.05 10 CLR 6-hr Min Temp (7am): 27.0°F
6-hr Max Temp (7am): 32.0°F
2017-11-24 05:56 28 21 24 74 280° 3 - 30.01 30.03 10 CLR None
2017-11-24 04:56 30 21 25 68 280° 5 - 30.00 30.02 10 CLR None
2017-11-24 03:56 31 22 25 68 280° 6 - 30.00 30.02 10 CLR None
2017-11-24 02:56 30 21 26 68 270° 3 - 30.01 30.02 10 CLR None
2017-11-24 01:56 28 22 - 77 - Calm - 30.01 30.03 10 CLR None
2017-11-24 00:56 31 21 26 66 280° 5 - 30.00 30.02 10 CLR 6-hr Min Temp (1am): 30.0°F
6-hr Max Temp (1am): 37.0°F
2017-11-23 23:56 33 20 28 58 260° 6 - 30.01 30.03 10 CLR 24-hr Min Temp (12am): 27.0°F
24-hr Max Temp (12am): 42.1°F
2017-11-23 22:56 32 21 29 63 270° 3 - 30.01 30.03 10 CLR None
2017-11-23 21:56 34 22 27 60 300° 8 - 30.01 30.03 10 CLR None
2017-11-23 20:56 34 23 27 63 310° 9 - 29.99 30.01 10 CLR None
2017-11-23 19:56 33 21 30 60 300° 3 - 29.99 30.02 10 CLR None
2017-11-23 18:56 35 21 32 56 240° 3 - 29.99 30.01 10 CLR 6-hr Min Temp (7pm): 32.0°F
6-hr Max Temp (7pm): 42.1°F
2017-11-23 17:56 32 20 - 60 - Calm - 29.99 30.02 10 CLR None
2017-11-23 16:56 35 21 - 56 - Calm - 29.99 30.01 10 CLR None
2017-11-23 15:56 39 15 37 37 290° 3 - 29.99 30.01 10 CLR None
2017-11-23 14:56 41 17 36 37 290° 7 - 29.99 30.01 10 CLR None
2017-11-23 13:56 41 17 37 37 330° 6 - 30.00 30.02 10 CLR None
2017-11-23 12:56 39 18 33 42 290° 9 - 30.02 30.04 10 CLR 6-hr Min Temp (1pm): 28.0°F
6-hr Max Temp (1pm): 39.9°F
2017-11-23 11:56 38 19 32 46 330° 8 - 30.03 30.05 10 CLR None
2017-11-23 10:56 36 18 28 47 300° 10 - 30.06 30.08 10 CLR None
2017-11-23 09:56 35 20 27 53 330° 10 - 30.09 30.11 10 CLR None
2017-11-23 08:56 32 19 27 58 310° 5 - 30.09 30.11 10 CLR None

Support USWX by starting your Amazon purchase here.